Terminal Aerodrome Forecast
Issued by NWS

Home | Current Version | Previous Version | Text Only | Print | Product List | Glossary On
Versions: 1 2 3 4 5 6 7 8 9 10 11 12 13 14 15 16 17 18
000
FTUS43 KAPX 260317 AAA
TAFPLN
TAF AMD
KPLN 260317Z 2603/2624 09011G20KT P6SM -FZRA BKN035 OVC045
     FM260400 10012G24KT P6SM -FZRA OVC015
     FM260600 10012G22KT 6SM FZRA BR OVC010
     FM260800 10012G22KT 5SM RA BR OVC008
     FM261200 10010G20KT 3SM -RA BR OVC008
     FM261400 10009KT 2SM -RA BR OVC003
     FM262200 10008KT 1/2SM -RA FG OVC003=

USA.gov is the U.S. government's official web portal to all federal, state and local government web resources and services.